sensor_id;sensor_type;location;lat;lon;timestamp;P1;durP1;ratioP1;P2;durP2;ratioP2
15354;SDS011;7777;52.254;9.618;2023-11-21T00:01:53;10.23;;;5.37;;
15354;SDS011;7777;52.254;9.618;2023-11-21T00:04:19;14.37;;;4.80;;
15354;SDS011;7777;52.254;9.618;2023-11-21T00:06:46;13.87;;;5.40;;
15354;SDS011;7777;52.254;9.618;2023-11-21T00:09:12;15.10;;;5.40;;
15354;SDS011;7777;52.254;9.618;2023-11-21T00:11:40;16.27;;;6.13;;
15354;SDS011;7777;52.254;9.618;2023-11-21T00:14:07;13.37;;;4.80;;
15354;SDS011;7777;52.254;9.618;2023-11-21T00:16:33;14.47;;;5.47;;
15354;SDS011;7777;52.254;9.618;2023-11-21T00:19:00;17.73;;;4.60;;
15354;SDS011;7777;52.254;9.618;2023-11-21T00:21:26;16.10;;;5.13;;
15354;SDS011;7777;52.254;9.618;2023-11-21T00:23:52;16.50;;;5.47;;
15354;SDS011;7777;52.254;9.618;2023-11-21T00:26:18;15.40;;;5.43;;
15354;SDS011;7777;52.254;9.618;2023-11-21T00:28:45;15.67;;;6.07;;
15354;SDS011;7777;52.254;9.618;2023-11-21T00:31:10;12.47;;;5.13;;
15354;SDS011;7777;52.254;9.618;2023-11-21T00:33:36;15.27;;;5.40;;
15354;SDS011;7777;52.254;9.618;2023-11-21T00:36:02;18.53;;;6.00;;
15354;SDS011;7777;52.254;9.618;2023-11-21T00:38:35;12.90;;;6.00;;
15354;SDS011;7777;52.254;9.618;2023-11-21T00:41:01;12.73;;;5.60;;
15354;SDS011;7777;52.254;9.618;2023-11-21T00:43:27;13.80;;;6.63;;
15354;SDS011;7777;52.254;9.618;2023-11-21T00:45:54;13.97;;;5.60;;
15354;SDS011;7777;52.254;9.618;2023-11-21T00:48:19;15.80;;;6.10;;
15354;SDS011;7777;52.254;9.618;2023-11-21T00:50:46;16.63;;;6.83;;
15354;SDS011;7777;52.254;9.618;2023-11-21T00:53:12;16.47;;;7.27;;
15354;SDS011;7777;52.254;9.618;2023-11-21T00:55:37;14.97;;;7.07;;
15354;SDS011;7777;52.254;9.618;2023-11-21T00:58:05;14.07;;;7.70;;
15354;SDS011;7777;52.254;9.618;2023-11-21T01:00:32;13.40;;;7.17;;
15354;SDS011;7777;52.254;9.618;2023-11-21T01:03:00;16.83;;;7.00;;
15354;SDS011;7777;52.254;9.618;2023-11-21T01:05:29;12.63;;;6.33;;
15354;SDS011;7777;52.254;9.618;2023-11-21T01:07:55;16.47;;;7.37;;
15354;SDS011;7777;52.254;9.618;2023-11-21T01:10:21;17.00;;;7.00;;
15354;SDS011;7777;52.254;9.618;2023-11-21T01:12:46;14.87;;;6.77;;
15354;SDS011;7777;52.254;9.618;2023-11-21T01:15:13;14.10;;;7.63;;
15354;SDS011;7777;52.254;9.618;2023-11-21T01:17:40;20.90;;;7.43;;
15354;SDS011;7777;52.254;9.618;2023-11-21T01:20:06;19.67;;;7.93;;
15354;SDS011;7777;52.254;9.618;2023-11-21T01:22:37;13.93;;;6.07;;
15354;SDS011;7777;52.254;9.618;2023-11-21T01:25:04;19.03;;;6.60;;
15354;SDS011;7777;52.254;9.618;2023-11-21T01:27:32;14.27;;;6.50;;
15354;SDS011;7777;52.254;9.618;2023-11-21T01:29:59;13.73;;;7.63;;
15354;SDS011;7777;52.254;9.618;2023-11-21T01:32:27;17.20;;;8.07;;
15354;SDS011;7777;52.254;9.618;2023-11-21T01:34:53;14.93;;;6.57;;
15354;SDS011;7777;52.254;9.618;2023-11-21T01:37:20;14.70;;;7.00;;
15354;SDS011;7777;52.254;9.618;2023-11-21T01:39:46;18.07;;;7.50;;
15354;SDS011;7777;52.254;9.618;2023-11-21T01:42:13;13.37;;;6.87;;
15354;SDS011;7777;52.254;9.618;2023-11-21T01:44:39;20.97;;;7.87;;
15354;SDS011;7777;52.254;9.618;2023-11-21T01:47:06;14.33;;;6.60;;
15354;SDS011;7777;52.254;9.618;2023-11-21T01:49:33;20.63;;;7.53;;
15354;SDS011;7777;52.254;9.618;2023-11-21T01:51:59;12.67;;;7.90;;
15354;SDS011;7777;52.254;9.618;2023-11-21T01:54:26;22.63;;;8.77;;
15354;SDS011;7777;52.254;9.618;2023-11-21T01:56:55;13.23;;;7.90;;
15354;SDS011;7777;52.254;9.618;2023-11-21T01:59:21;15.53;;;8.13;;
15354;SDS011;7777;52.254;9.618;2023-11-21T02:01:48;13.30;;;8.03;;
15354;SDS011;7777;52.254;9.618;2023-11-21T02:04:15;13.53;;;8.03;;
15354;SDS011;7777;52.254;9.618;2023-11-21T02:06:41;16.43;;;8.83;;
15354;SDS011;7777;52.254;9.618;2023-11-21T02:09:08;13.70;;;7.63;;
15354;SDS011;7777;52.254;9.618;2023-11-21T02:11:34;15.87;;;7.77;;
15354;SDS011;7777;52.254;9.618;2023-11-21T02:13:59;13.50;;;8.30;;
15354;SDS011;7777;52.254;9.618;2023-11-21T02:16:26;12.87;;;8.07;;
15354;SDS011;7777;52.254;9.618;2023-11-21T02:18:56;18.40;;;7.67;;
15354;SDS011;7777;52.254;9.618;2023-11-21T02:21:23;11.80;;;7.43;;
15354;SDS011;7777;52.254;9.618;2023-11-21T02:23:51;18.33;;;8.50;;
15354;SDS011;7777;52.254;9.618;2023-11-21T02:26:16;14.83;;;8.03;;
15354;SDS011;7777;52.254;9.618;2023-11-21T02:28:42;12.83;;;7.70;;
15354;SDS011;7777;52.254;9.618;2023-11-21T02:31:08;19.97;;;8.77;;
15354;SDS011;7777;52.254;9.618;2023-11-21T02:33:34;20.57;;;8.70;;
15354;SDS011;7777;52.254;9.618;2023-11-21T02:36:00;14.33;;;7.73;;
15354;SDS011;7777;52.254;9.618;2023-11-21T02:38:27;14.00;;;8.20;;
15354;SDS011;7777;52.254;9.618;2023-11-21T02:40:52;16.63;;;8.53;;
15354;SDS011;7777;52.254;9.618;2023-11-21T02:43:18;17.77;;;8.03;;
15354;SDS011;7777;52.254;9.618;2023-11-21T02:45:44;15.13;;;8.33;;
15354;SDS011;7777;52.254;9.618;2023-11-21T02:48:09;11.67;;;8.07;;
15354;SDS011;7777;52.254;9.618;2023-11-21T02:50:35;16.43;;;8.33;;
15354;SDS011;7777;52.254;9.618;2023-11-21T02:53:03;15.90;;;8.60;;
15354;SDS011;7777;52.254;9.618;2023-11-21T02:55:33;18.57;;;8.83;;
15354;SDS011;7777;52.254;9.618;2023-11-21T02:58:02;15.90;;;9.80;;
15354;SDS011;7777;52.254;9.618;2023-11-21T03:00:31;16.83;;;9.40;;
15354;SDS011;7777;52.254;9.618;2023-11-21T03:02:56;14.37;;;8.57;;
15354;SDS011;7777;52.254;9.618;2023-11-21T03:05:23;19.10;;;9.87;;
15354;SDS011;7777;52.254;9.618;2023-11-21T03:07:48;16.23;;;9.77;;
15354;SDS011;7777;52.254;9.618;2023-11-21T03:10:14;13.60;;;8.87;;
15354;SDS011;7777;52.254;9.618;2023-11-21T03:12:40;23.57;;;10.53;;
15354;SDS011;7777;52.254;9.618;2023-11-21T03:15:06;20.87;;;10.43;;
15354;SDS011;7777;52.254;9.618;2023-11-21T03:17:32;18.73;;;11.37;;
15354;SDS011;7777;52.254;9.618;2023-11-21T03:20:01;17.10;;;11.20;;
15354;SDS011;7777;52.254;9.618;2023-11-21T03:22:29;22.73;;;12.20;;
15354;SDS011;7777;52.254;9.618;2023-11-21T03:24:54;21.67;;;12.23;;
15354;SDS011;7777;52.254;9.618;2023-11-21T03:27:20;25.47;;;11.67;;
15354;SDS011;7777;52.254;9.618;2023-11-21T03:29:45;17.87;;;10.57;;
15354;SDS011;7777;52.254;9.618;2023-11-21T03:32:12;22.43;;;11.50;;
15354;SDS011;7777;52.254;9.618;2023-11-21T03:34:53;24.57;;;12.13;;
15354;SDS011;7777;52.254;9.618;2023-11-21T03:37:21;30.90;;;13.37;;
15354;SDS011;7777;52.254;9.618;2023-11-21T03:39:47;25.47;;;12.40;;
15354;SDS011;7777;52.254;9.618;2023-11-21T03:42:14;25.47;;;11.97;;
15354;SDS011;7777;52.254;9.618;2023-11-21T03:44:40;20.37;;;12.00;;
15354;SDS011;7777;52.254;9.618;2023-11-21T03:47:06;20.57;;;12.20;;
15354;SDS011;7777;52.254;9.618;2023-11-21T03:49:32;23.20;;;13.10;;
15354;SDS011;7777;52.254;9.618;2023-11-21T03:51:58;26.67;;;15.57;;
15354;SDS011;7777;52.254;9.618;2023-11-21T03:54:24;23.20;;;13.57;;
15354;SDS011;7777;52.254;9.618;2023-11-21T03:56:50;27.93;;;12.73;;
15354;SDS011;7777;52.254;9.618;2023-11-21T03:59:17;24.77;;;15.00;;
15354;SDS011;7777;52.254;9.618;2023-11-21T04:01:42;25.07;;;15.50;;
15354;SDS011;7777;52.254;9.618;2023-11-21T04:04:08;22.57;;;13.90;;
15354;SDS011;7777;52.254;9.618;2023-11-21T04:06:34;22.57;;;14.67;;
15354;SDS011;7777;52.254;9.618;2023-11-21T04:09:00;26.47;;;15.17;;
15354;SDS011;7777;52.254;9.618;2023-11-21T04:11:26;21.63;;;14.37;;
15354;SDS011;7777;52.254;9.618;2023-11-21T04:13:54;27.83;;;14.93;;
15354;SDS011;7777;52.254;9.618;2023-11-21T04:16:20;26.17;;;15.33;;
15354;SDS011;7777;52.254;9.618;2023-11-21T04:18:46;23.93;;;14.50;;
15354;SDS011;7777;52.254;9.618;2023-11-21T04:21:11;27.73;;;14.20;;
15354;SDS011;7777;52.254;9.618;2023-11-21T04:23:37;20.87;;;14.37;;
15354;SDS011;7777;52.254;9.618;2023-11-21T04:26:04;26.93;;;14.50;;
15354;SDS011;7777;52.254;9.618;2023-11-21T04:28:32;33.53;;;16.50;;
15354;SDS011;7777;52.254;9.618;2023-11-21T04:30:59;26.33;;;14.17;;
15354;SDS011;7777;52.254;9.618;2023-11-21T04:33:25;30.13;;;15.70;;
15354;SDS011;7777;52.254;9.618;2023-11-21T04:35:51;24.73;;;14.87;;
15354;SDS011;7777;52.254;9.618;2023-11-21T04:38:17;23.97;;;14.50;;
15354;SDS011;7777;52.254;9.618;2023-11-21T04:40:44;31.17;;;15.00;;
15354;SDS011;7777;52.254;9.618;2023-11-21T04:43:09;29.80;;;15.57;;
15354;SDS011;7777;52.254;9.618;2023-11-21T04:45:35;29.50;;;16.57;;
15354;SDS011;7777;52.254;9.618;2023-11-21T04:48:01;30.97;;;15.20;;
15354;SDS011;7777;52.254;9.618;2023-11-21T04:50:27;25.20;;;14.47;;
15354;SDS011;7777;52.254;9.618;2023-11-21T04:52:53;24.87;;;14.43;;
15354;SDS011;7777;52.254;9.618;2023-11-21T04:55:19;28.73;;;15.67;;
15354;SDS011;7777;52.254;9.618;2023-11-21T04:57:44;23.10;;;15.03;;
15354;SDS011;7777;52.254;9.618;2023-11-21T05:00:12;25.83;;;15.03;;
15354;SDS011;7777;52.254;9.618;2023-11-21T05:02:38;24.20;;;14.67;;
15354;SDS011;7777;52.254;9.618;2023-11-21T05:05:06;27.10;;;14.73;;
15354;SDS011;7777;52.254;9.618;2023-11-21T05:07:32;30.63;;;15.43;;
15354;SDS011;7777;52.254;9.618;2023-11-21T05:10:00;27.73;;;14.60;;
15354;SDS011;7777;52.254;9.618;2023-11-21T05:12:30;21.90;;;14.50;;
15354;SDS011;7777;52.254;9.618;2023-11-21T05:15:03;28.40;;;15.60;;
15354;SDS011;7777;52.254;9.618;2023-11-21T05:17:39;27.97;;;15.33;;
15354;SDS011;7777;52.254;9.618;2023-11-21T05:20:14;23.97;;;15.60;;
15354;SDS011;7777;52.254;9.618;2023-11-21T05:22:48;27.17;;;15.70;;
15354;SDS011;7777;52.254;9.618;2023-11-21T05:25:14;27.70;;;15.17;;
15354;SDS011;7777;52.254;9.618;2023-11-21T05:27:41;24.53;;;15.17;;
15354;SDS011;7777;52.254;9.618;2023-11-21T05:30:07;24.53;;;15.73;;
15354;SDS011;7777;52.254;9.618;2023-11-21T05:32:37;24.77;;;14.53;;
15354;SDS011;7777;52.254;9.618;2023-11-21T05:35:04;26.27;;;14.63;;
15354;SDS011;7777;52.254;9.618;2023-11-21T05:37:34;26.07;;;14.27;;
15354;SDS011;7777;52.254;9.618;2023-11-21T05:40:01;21.13;;;13.50;;
15354;SDS011;7777;52.254;9.618;2023-11-21T05:42:31;22.77;;;13.87;;
15354;SDS011;7777;52.254;9.618;2023-11-21T05:45:00;28.43;;;15.10;;
15354;SDS011;7777;52.254;9.618;2023-11-21T05:47:41;18.80;;;12.80;;
15354;SDS011;7777;52.254;9.618;2023-11-21T05:50:12;20.03;;;12.93;;
15354;SDS011;7777;52.254;9.618;2023-11-21T05:52:44;20.87;;;12.73;;
15354;SDS011;7777;52.254;9.618;2023-11-21T05:55:11;20.30;;;12.70;;
15354;SDS011;7777;52.254;9.618;2023-11-21T05:57:38;18.57;;;11.40;;
15354;SDS011;7777;52.254;9.618;2023-11-21T06:00:06;23.87;;;13.80;;
15354;SDS011;7777;52.254;9.618;2023-11-21T06:02:43;24.67;;;15.47;;
15354;SDS011;7777;52.254;9.618;2023-11-21T06:05:10;21.30;;;14.23;;
15354;SDS011;7777;52.254;9.618;2023-11-21T06:07:36;23.67;;;14.50;;
15354;SDS011;7777;52.254;9.618;2023-11-21T06:10:03;22.57;;;13.93;;
15354;SDS011;7777;52.254;9.618;2023-11-21T06:12:36;21.20;;;13.33;;
15354;SDS011;7777;52.254;9.618;2023-11-21T06:15:03;20.43;;;13.17;;
15354;SDS011;7777;52.254;9.618;2023-11-21T06:17:31;25.57;;;13.87;;
15354;SDS011;7777;52.254;9.618;2023-11-21T06:19:57;23.50;;;13.80;;
15354;SDS011;7777;52.254;9.618;2023-11-21T06:22:22;24.10;;;15.20;;
15354;SDS011;7777;52.254;9.618;2023-11-21T06:24:48;22.07;;;13.83;;
15354;SDS011;7777;52.254;9.618;2023-11-21T06:27:14;22.60;;;13.13;;
15354;SDS011;7777;52.254;9.618;2023-11-21T06:29:40;22.90;;;13.90;;
15354;SDS011;7777;52.254;9.618;2023-11-21T06:32:07;23.13;;;13.90;;
15354;SDS011;7777;52.254;9.618;2023-11-21T06:34:33;22.30;;;13.37;;
15354;SDS011;7777;52.254;9.618;2023-11-21T06:36:59;22.80;;;14.40;;
15354;SDS011;7777;52.254;9.618;2023-11-21T06:39:25;22.00;;;13.40;;
15354;SDS011;7777;52.254;9.618;2023-11-21T06:41:50;27.23;;;14.03;;
15354;SDS011;7777;52.254;9.618;2023-11-21T06:44:16;23.23;;;13.33;;
15354;SDS011;7777;52.254;9.618;2023-11-21T06:46:42;19.40;;;11.53;;
15354;SDS011;7777;52.254;9.618;2023-11-21T06:49:08;20.13;;;11.97;;
15354;SDS011;7777;52.254;9.618;2023-11-21T06:51:34;22.97;;;12.13;;
15354;SDS011;7777;52.254;9.618;2023-11-21T06:53:59;18.67;;;11.13;;
15354;SDS011;7777;52.254;9.618;2023-11-21T06:56:25;20.30;;;12.03;;
15354;SDS011;7777;52.254;9.618;2023-11-21T06:58:51;20.83;;;12.67;;
15354;SDS011;7777;52.254;9.618;2023-11-21T07:01:19;17.87;;;11.67;;
15354;SDS011;7777;52.254;9.618;2023-11-21T07:03:45;18.67;;;11.50;;
15354;SDS011;7777;52.254;9.618;2023-11-21T07:06:10;18.70;;;11.40;;
15354;SDS011;7777;52.254;9.618;2023-11-21T07:08:37;15.70;;;9.47;;
15354;SDS011;7777;52.254;9.618;2023-11-21T07:11:03;16.60;;;9.33;;
15354;SDS011;7777;52.254;9.618;2023-11-21T07:13:29;17.33;;;11.13;;
15354;SDS011;7777;52.254;9.618;2023-11-21T07:15:56;16.20;;;9.07;;
15354;SDS011;7777;52.254;9.618;2023-11-21T07:18:23;16.93;;;10.43;;
15354;SDS011;7777;52.254;9.618;2023-11-21T07:20:49;14.07;;;9.30;;
15354;SDS011;7777;52.254;9.618;2023-11-21T07:23:15;18.20;;;12.53;;
15354;SDS011;7777;52.254;9.618;2023-11-21T07:25:41;21.07;;;14.77;;
15354;SDS011;7777;52.254;9.618;2023-11-21T07:28:08;21.47;;;13.80;;
15354;SDS011;7777;52.254;9.618;2023-11-21T07:30:34;13.83;;;9.53;;
15354;SDS011;7777;52.254;9.618;2023-11-21T07:33:00;11.80;;;8.27;;
15354;SDS011;7777;52.254;9.618;2023-11-21T07:35:25;16.83;;;7.87;;
15354;SDS011;7777;52.254;9.618;2023-11-21T07:37:51;14.03;;;7.90;;
15354;SDS011;7777;52.254;9.618;2023-11-21T07:40:17;11.40;;;6.17;;
15354;SDS011;7777;52.254;9.618;2023-11-21T07:42:43;8.13;;;5.73;;
15354;SDS011;7777;52.254;9.618;2023-11-21T07:45:09;10.10;;;5.53;;
15354;SDS011;7777;52.254;9.618;2023-11-21T07:47:36;7.97;;;4.17;;
15354;SDS011;7777;52.254;9.618;2023-11-21T07:50:04;6.30;;;3.80;;
15354;SDS011;7777;52.254;9.618;2023-11-21T07:52:32;6.60;;;3.63;;
15354;SDS011;7777;52.254;9.618;2023-11-21T07:54:58;5.67;;;3.43;;
15354;SDS011;7777;52.254;9.618;2023-11-21T07:57:24;4.30;;;3.00;;
15354;SDS011;7777;52.254;9.618;2023-11-21T07:59:50;4.73;;;3.77;;
15354;SDS011;7777;52.254;9.618;2023-11-21T08:02:15;5.27;;;3.23;;
15354;SDS011;7777;52.254;9.618;2023-11-21T08:04:42;4.77;;;3.23;;
15354;SDS011;7777;52.254;9.618;2023-11-21T08:07:09;5.23;;;3.10;;
15354;SDS011;7777;52.254;9.618;2023-11-21T08:09:36;5.70;;;3.67;;
15354;SDS011;7777;52.254;9.618;2023-11-21T08:12:01;5.03;;;3.73;;
15354;SDS011;7777;52.254;9.618;2023-11-21T08:14:28;7.00;;;4.17;;
15354;SDS011;7777;52.254;9.618;2023-11-21T08:16:53;5.73;;;4.30;;
15354;SDS011;7777;52.254;9.618;2023-11-21T08:19:22;6.33;;;4.13;;
15354;SDS011;7777;52.254;9.618;2023-11-21T08:21:49;6.03;;;4.10;;
15354;SDS011;7777;52.254;9.618;2023-11-21T08:24:19;5.27;;;3.30;;
15354;SDS011;7777;52.254;9.618;2023-11-21T08:26:46;5.77;;;3.40;;
15354;SDS011;7777;52.254;9.618;2023-11-21T08:29:13;5.30;;;3.87;;
15354;SDS011;7777;52.254;9.618;2023-11-21T08:31:39;5.33;;;3.53;;
15354;SDS011;7777;52.254;9.618;2023-11-21T08:34:05;4.50;;;3.43;;
15354;SDS011;7777;52.254;9.618;2023-11-21T08:36:31;4.87;;;3.33;;
15354;SDS011;7777;52.254;9.618;2023-11-21T08:38:57;6.60;;;4.47;;
15354;SDS011;7777;52.254;9.618;2023-11-21T08:41:23;7.57;;;3.83;;
15354;SDS011;7777;52.254;9.618;2023-11-21T08:43:51;5.77;;;3.67;;
15354;SDS011;7777;52.254;9.618;2023-11-21T08:46:18;7.67;;;4.17;;
15354;SDS011;7777;52.254;9.618;2023-11-21T08:48:44;7.23;;;4.57;;
15354;SDS011;7777;52.254;9.618;2023-11-21T08:51:10;8.73;;;4.27;;
15354;SDS011;7777;52.254;9.618;2023-11-21T08:53:37;7.87;;;4.13;;
15354;SDS011;7777;52.254;9.618;2023-11-21T08:56:04;6.20;;;3.87;;
15354;SDS011;7777;52.254;9.618;2023-11-21T08:58:31;5.77;;;3.97;;
15354;SDS011;7777;52.254;9.618;2023-11-21T09:00:58;8.03;;;3.70;;
15354;SDS011;7777;52.254;9.618;2023-11-21T09:03:23;6.30;;;3.73;;
15354;SDS011;7777;52.254;9.618;2023-11-21T09:05:49;4.53;;;3.30;;
15354;SDS011;7777;52.254;9.618;2023-11-21T09:08:15;5.67;;;3.70;;
15354;SDS011;7777;52.254;9.618;2023-11-21T09:10:41;4.83;;;3.67;;
15354;SDS011;7777;52.254;9.618;2023-11-21T09:13:10;6.83;;;4.13;;
15354;SDS011;7777;52.254;9.618;2023-11-21T09:15:35;8.33;;;5.33;;
15354;SDS011;7777;52.254;9.618;2023-11-21T09:18:01;8.63;;;6.27;;
15354;SDS011;7777;52.254;9.618;2023-11-21T09:20:27;9.73;;;6.47;;
15354;SDS011;7777;52.254;9.618;2023-11-21T09:22:53;9.63;;;6.83;;
15354;SDS011;7777;52.254;9.618;2023-11-21T09:25:20;12.20;;;8.00;;
15354;SDS011;7777;52.254;9.618;2023-11-21T09:27:46;11.43;;;8.60;;
15354;SDS011;7777;52.254;9.618;2023-11-21T09:30:12;9.90;;;7.93;;
15354;SDS011;7777;52.254;9.618;2023-11-21T09:32:39;12.33;;;8.50;;
15354;SDS011;7777;52.254;9.618;2023-11-21T09:35:05;16.83;;;8.97;;
15354;SDS011;7777;52.254;9.618;2023-11-21T09:37:34;10.67;;;8.10;;
15354;SDS011;7777;52.254;9.618;2023-11-21T09:40:02;10.63;;;7.80;;
15354;SDS011;7777;52.254;9.618;2023-11-21T09:42:40;14.27;;;8.30;;
15354;SDS011;7777;52.254;9.618;2023-11-21T09:45:46;12.00;;;8.40;;
15354;SDS011;7777;52.254;9.618;2023-11-21T09:48:18;10.43;;;7.50;;
15354;SDS011;7777;52.254;9.618;2023-11-21T09:50:45;13.50;;;9.17;;
15354;SDS011;7777;52.254;9.618;2023-11-21T09:55:44;12.10;;;8.67;;
15354;SDS011;7777;52.254;9.618;2023-11-21T09:58:13;13.13;;;9.40;;
15354;SDS011;7777;52.254;9.618;2023-11-21T10:00:40;13.40;;;8.30;;
15354;SDS011;7777;52.254;9.618;2023-11-21T10:03:34;13.70;;;7.90;;
15354;SDS011;7777;52.254;9.618;2023-11-21T10:06:01;13.23;;;9.33;;
15354;SDS011;7777;52.254;9.618;2023-11-21T10:08:30;10.80;;;7.67;;
15354;SDS011;7777;52.254;9.618;2023-11-21T10:10:57;12.07;;;7.40;;
15354;SDS011;7777;52.254;9.618;2023-11-21T10:13:24;12.33;;;7.37;;
15354;SDS011;7777;52.254;9.618;2023-11-21T10:15:55;14.87;;;7.30;;
15354;SDS011;7777;52.254;9.618;2023-11-21T10:18:24;9.00;;;6.77;;
15354;SDS011;7777;52.254;9.618;2023-11-21T10:20:51;11.17;;;8.00;;
15354;SDS011;7777;52.254;9.618;2023-11-21T10:23:18;9.73;;;7.20;;
15354;SDS011;7777;52.254;9.618;2023-11-21T10:25:46;9.63;;;6.60;;
15354;SDS011;7777;52.254;9.618;2023-11-21T10:28:11;10.83;;;6.73;;
15354;SDS011;7777;52.254;9.618;2023-11-21T10:30:37;8.93;;;6.27;;
15354;SDS011;7777;52.254;9.618;2023-11-21T10:33:05;8.37;;;6.83;;
15354;SDS011;7777;52.254;9.618;2023-11-21T10:35:40;8.87;;;6.20;;
15354;SDS011;7777;52.254;9.618;2023-11-21T10:38:11;11.00;;;7.23;;
15354;SDS011;7777;52.254;9.618;2023-11-21T10:40:39;13.67;;;7.57;;
15354;SDS011;7777;52.254;9.618;2023-11-21T10:43:07;12.57;;;7.00;;
15354;SDS011;7777;52.254;9.618;2023-11-21T10:45:34;9.60;;;6.63;;
15354;SDS011;7777;52.254;9.618;2023-11-21T10:48:07;10.27;;;7.30;;
15354;SDS011;7777;52.254;9.618;2023-11-21T10:50:41;11.20;;;6.80;;
15354;SDS011;7777;52.254;9.618;2023-11-21T10:53:09;10.63;;;6.80;;
15354;SDS011;7777;52.254;9.618;2023-11-21T10:55:36;9.63;;;6.67;;
15354;SDS011;7777;52.254;9.618;2023-11-21T10:58:02;9.77;;;6.83;;
15354;SDS011;7777;52.254;9.618;2023-11-21T11:00:30;8.97;;;6.37;;
15354;SDS011;7777;52.254;9.618;2023-11-21T11:02:57;11.73;;;7.03;;
15354;SDS011;7777;52.254;9.618;2023-11-21T11:05:24;8.77;;;6.40;;
15354;SDS011;7777;52.254;9.618;2023-11-21T11:07:56;13.20;;;7.70;;
15354;SDS011;7777;52.254;9.618;2023-11-21T11:10:34;11.50;;;6.87;;
15354;SDS011;7777;52.254;9.618;2023-11-21T11:13:01;10.63;;;6.63;;
15354;SDS011;7777;52.254;9.618;2023-11-21T11:15:27;17.07;;;7.07;;
15354;SDS011;7777;52.254;9.618;2023-11-21T11:17:54;9.00;;;6.10;;
15354;SDS011;7777;52.254;9.618;2023-11-21T11:20:23;8.23;;;6.10;;
15354;SDS011;7777;52.254;9.618;2023-11-21T11:33:57;8.63;;;5.67;;
15354;SDS011;7777;52.254;9.618;2023-11-21T11:36:56;7.80;;;5.67;;
15354;SDS011;7777;52.254;9.618;2023-11-21T11:39:51;8.23;;;5.70;;
15354;SDS011;7777;52.254;9.618;2023-11-21T11:42:16;11.27;;;5.73;;
15354;SDS011;7777;52.254;9.618;2023-11-21T11:47:28;10.70;;;6.20;;
15354;SDS011;7777;52.254;9.618;2023-11-21T11:50:09;10.73;;;5.10;;
15354;SDS011;7777;52.254;9.618;2023-11-21T11:52:43;7.03;;;5.00;;
15354;SDS011;7777;52.254;9.618;2023-11-21T11:55:16;8.70;;;4.97;;
15354;SDS011;7777;52.254;9.618;2023-11-21T11:57:43;7.30;;;5.13;;
15354;SDS011;7777;52.254;9.618;2023-11-21T12:00:21;9.80;;;5.70;;
15354;SDS011;7777;52.254;9.618;2023-11-21T12:03:02;8.17;;;5.50;;
15354;SDS011;7777;52.254;9.618;2023-11-21T12:05:31;10.17;;;5.70;;
15354;SDS011;7777;52.254;9.618;2023-11-21T12:07:59;10.97;;;5.47;;
15354;SDS011;7777;52.254;9.618;2023-11-21T12:10:28;7.40;;;5.43;;
15354;SDS011;7777;52.254;9.618;2023-11-21T12:12:57;12.50;;;6.90;;
15354;SDS011;7777;52.254;9.618;2023-11-21T12:15:34;10.40;;;5.53;;
15354;SDS011;7777;52.254;9.618;2023-11-21T12:18:01;13.33;;;6.13;;
15354;SDS011;7777;52.254;9.618;2023-11-21T12:20:28;9.33;;;6.27;;
15354;SDS011;7777;52.254;9.618;2023-11-21T12:22:59;10.63;;;5.30;;
15354;SDS011;7777;52.254;9.618;2023-11-21T12:25:26;9.83;;;6.50;;
15354;SDS011;7777;52.254;9.618;2023-11-21T12:27:59;8.43;;;5.93;;
15354;SDS011;7777;52.254;9.618;2023-11-21T12:30:26;8.77;;;5.60;;
15354;SDS011;7777;52.254;9.618;2023-11-21T12:32:57;8.33;;;4.90;;
15354;SDS011;7777;52.254;9.618;2023-11-21T12:35:25;7.30;;;5.10;;
15354;SDS011;7777;52.254;9.618;2023-11-21T12:38:13;7.77;;;5.80;;
15354;SDS011;7777;52.254;9.618;2023-11-21T12:40:42;7.27;;;5.20;;
15354;SDS011;7777;52.254;9.618;2023-11-21T12:43:09;12.00;;;5.90;;
15354;SDS011;7777;52.254;9.618;2023-11-21T12:45:35;8.33;;;6.00;;
15354;SDS011;7777;52.254;9.618;2023-11-21T12:48:03;7.97;;;5.43;;
15354;SDS011;7777;52.254;9.618;2023-11-21T12:50:36;6.97;;;5.07;;
15354;SDS011;7777;52.254;9.618;2023-11-21T12:53:03;6.50;;;4.90;;
15354;SDS011;7777;52.254;9.618;2023-11-21T12:55:33;10.10;;;4.70;;
15354;SDS011;7777;52.254;9.618;2023-11-21T12:58:03;8.10;;;4.80;;
15354;SDS011;7777;52.254;9.618;2023-11-21T13:00:36;7.00;;;4.70;;
15354;SDS011;7777;52.254;9.618;2023-11-21T13:03:08;8.90;;;5.53;;
15354;SDS011;7777;52.254;9.618;2023-11-21T13:05:37;12.20;;;5.70;;
15354;SDS011;7777;52.254;9.618;2023-11-21T13:08:08;9.07;;;6.13;;
15354;SDS011;7777;52.254;9.618;2023-11-21T13:10:38;7.40;;;5.40;;
15354;SDS011;7777;52.254;9.618;2023-11-21T13:13:07;6.43;;;4.77;;
15354;SDS011;7777;52.254;9.618;2023-11-21T13:15:38;8.23;;;4.90;;
15354;SDS011;7777;52.254;9.618;2023-11-21T13:18:08;9.27;;;5.13;;
15354;SDS011;7777;52.254;9.618;2023-11-21T13:20:36;8.60;;;5.70;;
15354;SDS011;7777;52.254;9.618;2023-11-21T13:23:06;9.57;;;6.13;;
15354;SDS011;7777;52.254;9.618;2023-11-21T13:25:33;10.57;;;5.23;;
15354;SDS011;7777;52.254;9.618;2023-11-21T13:27:59;9.77;;;7.00;;
15354;SDS011;7777;52.254;9.618;2023-11-21T13:30:27;8.00;;;5.50;;
15354;SDS011;7777;52.254;9.618;2023-11-21T13:33:00;11.10;;;6.87;;
15354;SDS011;7777;52.254;9.618;2023-11-21T13:35:33;7.57;;;5.93;;
15354;SDS011;7777;52.254;9.618;2023-11-21T13:38:09;6.70;;;5.13;;
15354;SDS011;7777;52.254;9.618;2023-11-21T13:40:37;9.97;;;5.40;;
15354;SDS011;7777;52.254;9.618;2023-11-21T13:43:14;7.73;;;5.23;;
15354;SDS011;7777;52.254;9.618;2023-11-21T13:45:47;7.23;;;4.83;;
15354;SDS011;7777;52.254;9.618;2023-11-21T13:48:20;8.73;;;4.97;;
15354;SDS011;7777;52.254;9.618;2023-11-21T13:50:53;10.60;;;4.70;;
15354;SDS011;7777;52.254;9.618;2023-11-21T13:53:35;8.53;;;4.37;;
15354;SDS011;7777;52.254;9.618;2023-11-21T13:56:03;6.73;;;4.77;;
15354;SDS011;7777;52.254;9.618;2023-11-21T13:58:29;9.73;;;5.10;;
15354;SDS011;7777;52.254;9.618;2023-11-21T14:01:09;9.67;;;5.70;;
15354;SDS011;7777;52.254;9.618;2023-11-21T14:03:59;8.10;;;5.50;;
15354;SDS011;7777;52.254;9.618;2023-11-21T14:06:48;9.13;;;4.97;;
15354;SDS011;7777;52.254;9.618;2023-11-21T14:09:18;7.03;;;5.10;;
15354;SDS011;7777;52.254;9.618;2023-11-21T14:11:58;7.20;;;5.10;;
15354;SDS011;7777;52.254;9.618;2023-11-21T14:14:25;7.47;;;5.10;;
15354;SDS011;7777;52.254;9.618;2023-11-21T14:16:55;8.57;;;4.97;;
15354;SDS011;7777;52.254;9.618;2023-11-21T14:19:23;6.20;;;4.87;;
15354;SDS011;7777;52.254;9.618;2023-11-21T14:21:55;7.13;;;4.93;;
15354;SDS011;7777;52.254;9.618;2023-11-21T14:24:21;7.03;;;5.03;;
15354;SDS011;7777;52.254;9.618;2023-11-21T14:26:48;6.90;;;5.10;;
15354;SDS011;7777;52.254;9.618;2023-11-21T14:29:15;7.23;;;5.37;;
15354;SDS011;7777;52.254;9.618;2023-11-21T14:31:44;6.23;;;5.00;;
15354;SDS011;7777;52.254;9.618;2023-11-21T14:34:11;10.00;;;5.87;;
15354;SDS011;7777;52.254;9.618;2023-11-21T14:36:40;8.93;;;4.40;;
15354;SDS011;7777;52.254;9.618;2023-11-21T14:39:06;9.17;;;5.07;;
15354;SDS011;7777;52.254;9.618;2023-11-21T14:41:34;6.07;;;4.23;;
15354;SDS011;7777;52.254;9.618;2023-11-21T14:44:01;7.00;;;4.40;;
15354;SDS011;7777;52.254;9.618;2023-11-21T14:46:32;7.53;;;4.43;;
15354;SDS011;7777;52.254;9.618;2023-11-21T14:49:00;8.20;;;4.60;;
15354;SDS011;7777;52.254;9.618;2023-11-21T14:51:44;7.27;;;4.63;;
15354;SDS011;7777;52.254;9.618;2023-11-21T14:54:42;7.17;;;4.73;;
15354;SDS011;7777;52.254;9.618;2023-11-21T14:57:11;6.07;;;4.40;;
15354;SDS011;7777;52.254;9.618;2023-11-21T14:59:47;7.77;;;4.63;;
15354;SDS011;7777;52.254;9.618;2023-11-21T15:02:17;10.87;;;4.60;;
15354;SDS011;7777;52.254;9.618;2023-11-21T15:05:07;8.20;;;3.93;;
15354;SDS011;7777;52.254;9.618;2023-11-21T15:07:39;5.07;;;3.70;;
15354;SDS011;7777;52.254;9.618;2023-11-21T15:10:04;5.13;;;3.83;;
15354;SDS011;7777;52.254;9.618;2023-11-21T15:12:36;4.97;;;3.43;;